CCA721 RCSS-VMMC
Flight info
| Callsign | CCA721 |
|---|---|
| Flight time | 1h 27m |
| Altitude | 34000 |
| Route | XEBEC1A XEBEC V21 MKG A1 ELATO J101 SMT |
| Aircraft | B738/M-SDE2E3FGHIRWXY/LB1 |
Departure
| Time | 2026-05-06 14:27 |
|---|---|
| Airport | Taipei Songshan International Airport (RCSS) |
Arrival
| Time | 2026-05-06 15:54 |
|---|---|
| Airport | Macau International Airport (VMMC) |
| Time | Latitude | Longitude | Altitude | Speed | Heading |
|---|---|---|---|---|---|
| 2026-05-06 14:00 | 25.06483 | 121.55049 | 32 ft | 0 kts | 178° |
| 2026-05-06 14:17 | 25.06495 | 121.55049 | 32 ft | 4 kts | 178° |
| 2026-05-06 14:17 | 25.06522 | 121.55048 | 32 ft | 4 kts | 178° |
| 2026-05-06 14:17 | 25.06549 | 121.55047 | 31 ft | 3 kts | 178° |
| 2026-05-06 14:17 | 25.06566 | 121.55047 | 32 ft | 4 kts | 230° |
| 2026-05-06 14:18 | 25.06572 | 121.55070 | 26 ft | 4 kts | 268° |
| 2026-05-06 14:18 | 25.06572 | 121.55082 | 30 ft | 1 kts | 268° |
| 2026-05-06 14:21 | 25.06572 | 121.55068 | 29 ft | 3 kts | 268° |
| 2026-05-06 14:21 | 25.06571 | 121.55025 | 26 ft | 9 kts | 268° |
| 2026-05-06 14:21 | 25.06569 | 121.54943 | 26 ft | 11 kts | 268° |
| 2026-05-06 14:22 | 25.06566 | 121.54859 | 26 ft | 11 kts | 268° |
| 2026-05-06 14:22 | 25.06566 | 121.54778 | 30 ft | 11 kts | 275° |
| 2026-05-06 14:22 | 25.06587 | 121.54702 | 28 ft | 10 kts | 299° |
| 2026-05-06 14:22 | 25.06624 | 121.54636 | 30 ft | 10 kts | 301° |
| 2026-05-06 14:23 | 25.06660 | 121.54573 | 28 ft | 10 kts | 306° |
| 2026-05-06 14:23 | 25.06704 | 121.54518 | 29 ft | 9 kts | 310° |
| 2026-05-06 14:23 | 25.06741 | 121.54459 | 28 ft | 9 kts | 302° |
| 2026-05-06 14:23 | 25.06774 | 121.54400 | 26 ft | 9 kts | 302° |
| 2026-05-06 14:24 | 25.06806 | 121.54342 | 26 ft | 9 kts | 301° |
| 2026-05-06 14:24 | 25.06837 | 121.54286 | 26 ft | 8 kts | 301° |
| 2026-05-06 14:24 | 25.06867 | 121.54233 | 26 ft | 8 kts | 301° |
| 2026-05-06 14:24 | 25.06894 | 121.54179 | 26 ft | 8 kts | 294° |
| 2026-05-06 14:25 | 25.06909 | 121.54122 | 27 ft | 8 kts | 279° |
| 2026-05-06 14:25 | 25.06913 | 121.54064 | 27 ft | 7 kts | 272° |
| 2026-05-06 14:25 | 25.06915 | 121.54008 | 27 ft | 7 kts | 278° |
| 2026-05-06 14:25 | 25.06948 | 121.53972 | 27 ft | 7 kts | 336° |
| 2026-05-06 14:26 | 25.06992 | 121.53984 | 28 ft | 7 kts | 45° |
| 2026-05-06 14:26 | 25.07002 | 121.54034 | 28 ft | 7 kts | 91° |
| 2026-05-06 14:26 | 25.07001 | 121.54087 | 28 ft | 9 kts | 92° |
| 2026-05-06 14:26 | 25.06991 | 121.54363 | 25 ft | 71 kts | 92° |
| 2026-05-06 14:27 | 25.06963 | 121.55143 | 27 ft | 133 kts | 92° |
| 2026-05-06 14:27 | 25.06917 | 121.56332 | 308 ft | 160 kts | 92° |
| 2026-05-06 14:27 | 25.06856 | 121.57562 | 1000 ft | 164 kts | 101° |
| 2026-05-06 14:27 | 25.06243 | 121.58623 | 1597 ft | 170 kts | 144° |
| 2026-05-06 14:28 | 25.05381 | 121.59479 | 2378 ft | 168 kts | 118° |
| 2026-05-06 14:28 | 25.04910 | 121.60650 | 3084 ft | 170 kts | 115° |
| 2026-05-06 14:28 | 25.04407 | 121.61899 | 3509 ft | 190 kts | 116° |
| 2026-05-06 14:28 | 25.03814 | 121.63317 | 3762 ft | 214 kts | 119° |
| 2026-05-06 14:29 | 25.02816 | 121.64610 | 3946 ft | 234 kts | 150° |
| 2026-05-06 14:29 | 25.01256 | 121.65143 | 4464 ft | 242 kts | 178° |
| 2026-05-06 14:29 | 24.99611 | 121.64792 | 5130 ft | 244 kts | 207° |
| 2026-05-06 14:29 | 24.98351 | 121.63607 | 5846 ft | 246 kts | 237° |
| 2026-05-06 14:30 | 24.97783 | 121.61836 | 6558 ft | 247 kts | 261° |
| 2026-05-06 14:30 | 24.97591 | 121.59957 | 7324 ft | 247 kts | 263° |
| 2026-05-06 14:30 | 24.97434 | 121.58063 | 8050 ft | 249 kts | 264° |
| 2026-05-06 14:30 | 24.97280 | 121.56148 | 8720 ft | 254 kts | 264° |
| 2026-05-06 14:31 | 24.97125 | 121.54191 | 9374 ft | 257 kts | 264° |
| 2026-05-06 14:31 | 24.96969 | 121.52234 | 10158 ft | 255 kts | 264° |
| 2026-05-06 14:31 | 24.96811 | 121.50273 | 10781 ft | 259 kts | 263° |
| 2026-05-06 14:31 | 24.96650 | 121.48277 | 11352 ft | 265 kts | 264° |
| 2026-05-06 14:32 | 24.96363 | 121.46259 | 11919 ft | 270 kts | 249° |
| 2026-05-06 14:32 | 24.95357 | 121.44547 | 12520 ft | 274 kts | 225° |
| 2026-05-06 14:32 | 24.93770 | 121.43361 | 13106 ft | 281 kts | 203° |
| 2026-05-06 14:32 | 24.91903 | 121.42656 | 13732 ft | 286 kts | 198° |
| 2026-05-06 14:33 | 24.89986 | 121.41999 | 14292 ft | 291 kts | 199° |
| 2026-05-06 14:33 | 24.88049 | 121.41325 | 14912 ft | 293 kts | 199° |
| 2026-05-06 14:33 | 24.86096 | 121.40634 | 15547 ft | 295 kts | 199° |
| 2026-05-06 14:33 | 24.84103 | 121.39917 | 15892 ft | 311 kts | 200° |
| 2026-05-06 14:34 | 24.81986 | 121.39142 | 16040 ft | 331 kts | 200° |
| 2026-05-06 14:34 | 24.79763 | 121.38327 | 16195 ft | 350 kts | 200° |
| 2026-05-06 14:34 | 24.77392 | 121.37459 | 16330 ft | 368 kts | 200° |
| 2026-05-06 14:34 | 24.74906 | 121.36551 | 16451 ft | 385 kts | 200° |
| 2026-05-06 14:35 | 24.72317 | 121.35606 | 16553 ft | 399 kts | 200° |
| 2026-05-06 14:35 | 24.69641 | 121.34630 | 16781 ft | 409 kts | 200° |
| 2026-05-06 14:35 | 24.66929 | 121.33640 | 17182 ft | 413 kts | 200° |
| 2026-05-06 14:35 | 24.64192 | 121.32639 | 17656 ft | 414 kts | 200° |
| 2026-05-06 14:36 | 24.61453 | 121.31637 | 18096 ft | 416 kts | 200° |
| 2026-05-06 14:36 | 24.58696 | 121.30628 | 18508 ft | 419 kts | 200° |
| 2026-05-06 14:36 | 24.55957 | 121.29626 | 18862 ft | 421 kts | 200° |
| 2026-05-06 14:36 | 24.53179 | 121.28611 | 19247 ft | 422 kts | 200° |
| 2026-05-06 14:37 | 24.50388 | 121.27591 | 19669 ft | 423 kts | 200° |
| 2026-05-06 14:37 | 24.47589 | 121.26569 | 20089 ft | 424 kts | 200° |
| 2026-05-06 14:37 | 24.44794 | 121.25550 | 20506 ft | 423 kts | 200° |
| 2026-05-06 14:37 | 24.42033 | 121.24409 | 20817 ft | 425 kts | 210° |
| 2026-05-06 14:38 | 24.39677 | 121.22468 | 21136 ft | 426 kts | 226° |
| 2026-05-06 14:38 | 24.37917 | 121.19873 | 21534 ft | 425 kts | 241° |
| 2026-05-06 14:38 | 24.36508 | 121.17019 | 21914 ft | 426 kts | 242° |
| 2026-05-06 14:38 | 24.35130 | 121.14139 | 22241 ft | 428 kts | 242° |
| 2026-05-06 14:39 | 24.33762 | 121.11282 | 22555 ft | 430 kts | 242° |
| 2026-05-06 14:39 | 24.32357 | 121.08383 | 22917 ft | 432 kts | 242° |
| 2026-05-06 14:39 | 24.30932 | 121.05476 | 23225 ft | 433 kts | 242° |
| 2026-05-06 14:39 | 24.29494 | 121.02568 | 23556 ft | 435 kts | 241° |
| 2026-05-06 14:40 | 24.28045 | 120.99647 | 23810 ft | 437 kts | 241° |
| 2026-05-06 14:40 | 24.26587 | 120.96710 | 24022 ft | 440 kts | 241° |
| 2026-05-06 14:40 | 24.25123 | 120.93763 | 24327 ft | 440 kts | 241° |
| 2026-05-06 14:40 | 24.23664 | 120.90828 | 24681 ft | 438 kts | 241° |
| 2026-05-06 14:41 | 24.22219 | 120.87933 | 24929 ft | 440 kts | 241° |
| 2026-05-06 14:41 | 24.20744 | 120.84985 | 25143 ft | 442 kts | 241° |
| 2026-05-06 14:41 | 24.19262 | 120.82026 | 25366 ft | 444 kts | 241° |
| 2026-05-06 14:41 | 24.17776 | 120.79060 | 25593 ft | 445 kts | 241° |
| 2026-05-06 14:42 | 24.16283 | 120.76080 | 25847 ft | 446 kts | 242° |
| 2026-05-06 14:42 | 24.14789 | 120.73098 | 26089 ft | 447 kts | 242° |
| 2026-05-06 14:42 | 24.13290 | 120.70110 | 26319 ft | 449 kts | 242° |
| 2026-05-06 14:42 | 24.11786 | 120.67111 | 26542 ft | 450 kts | 242° |
| 2026-05-06 14:43 | 24.10277 | 120.64103 | 26752 ft | 451 kts | 242° |
| 2026-05-06 14:43 | 24.08760 | 120.61083 | 26922 ft | 454 kts | 242° |
| 2026-05-06 14:43 | 24.07255 | 120.58087 | 27094 ft | 456 kts | 242° |
| 2026-05-06 14:43 | 24.05725 | 120.55047 | 27313 ft | 457 kts | 242° |
| 2026-05-06 14:44 | 24.04196 | 120.52001 | 27533 ft | 458 kts | 242° |
| 2026-05-06 14:44 | 24.02668 | 120.48944 | 27740 ft | 459 kts | 242° |
| 2026-05-06 14:44 | 24.01136 | 120.45874 | 27936 ft | 460 kts | 242° |
| 2026-05-06 14:45 | 23.98071 | 120.39757 | 28542 ft | 457 kts | 242° |
| 2026-05-06 14:45 | 23.96542 | 120.36721 | 28845 ft | 456 kts | 242° |
| 2026-05-06 14:45 | 23.95009 | 120.33682 | 29092 ft | 457 kts | 242° |
| 2026-05-06 14:45 | 23.93474 | 120.30640 | 29369 ft | 456 kts | 242° |
| 2026-05-06 14:46 | 23.91965 | 120.27649 | 29683 ft | 455 kts | 243° |
| 2026-05-06 14:46 | 23.90437 | 120.24623 | 30008 ft | 454 kts | 243° |
| 2026-05-06 14:46 | 23.88913 | 120.21605 | 30252 ft | 454 kts | 243° |
| 2026-05-06 14:46 | 23.87388 | 120.18586 | 30482 ft | 454 kts | 243° |
| 2026-05-06 14:47 | 23.85859 | 120.15562 | 30757 ft | 453 kts | 243° |
| 2026-05-06 14:47 | 23.84337 | 120.12552 | 31048 ft | 452 kts | 243° |
| 2026-05-06 14:47 | 23.82817 | 120.09549 | 31309 ft | 452 kts | 243° |
| 2026-05-06 14:47 | 23.81292 | 120.06538 | 31501 ft | 454 kts | 243° |
| 2026-05-06 14:48 | 23.79782 | 120.03557 | 31752 ft | 454 kts | 243° |
| 2026-05-06 14:48 | 23.78236 | 120.00509 | 32090 ft | 452 kts | 243° |
| 2026-05-06 14:48 | 23.76738 | 119.97557 | 32424 ft | 450 kts | 243° |
| 2026-05-06 14:48 | 23.75222 | 119.94571 | 32718 ft | 450 kts | 243° |
| 2026-05-06 14:49 | 23.73708 | 119.91589 | 32993 ft | 449 kts | 243° |
| 2026-05-06 14:49 | 23.72191 | 119.88605 | 33291 ft | 449 kts | 244° |
| 2026-05-06 14:49 | 23.70679 | 119.85633 | 33586 ft | 448 kts | 244° |
| 2026-05-06 14:49 | 23.69168 | 119.82663 | 33836 ft | 448 kts | 244° |
| 2026-05-06 14:50 | 23.67656 | 119.79692 | 33993 ft | 450 kts | 244° |
| 2026-05-06 14:50 | 23.64607 | 119.73707 | 33987 ft | 451 kts | 244° |
| 2026-05-06 14:51 | 23.61599 | 119.67814 | 33996 ft | 445 kts | 244° |
| 2026-05-06 14:51 | 23.58550 | 119.61944 | 33997 ft | 445 kts | 242° |
| 2026-05-06 14:52 | 23.55264 | 119.56233 | 33990 ft | 444 kts | 240° |
| 2026-05-06 14:52 | 23.51926 | 119.50571 | 33993 ft | 444 kts | 240° |
| 2026-05-06 14:53 | 23.48628 | 119.44936 | 33993 ft | 444 kts | 240° |
| 2026-05-06 14:53 | 23.45320 | 119.39250 | 33994 ft | 445 kts | 240° |
| 2026-05-06 14:54 | 23.42009 | 119.33553 | 33993 ft | 446 kts | 240° |
| 2026-05-06 14:54 | 23.38689 | 119.27846 | 33994 ft | 447 kts | 240° |
| 2026-05-06 14:55 | 23.35377 | 119.22160 | 33995 ft | 448 kts | 240° |
| 2026-05-06 14:55 | 23.32040 | 119.16438 | 33990 ft | 449 kts | 240° |
| 2026-05-06 14:56 | 23.28690 | 119.10703 | 33991 ft | 449 kts | 240° |
| 2026-05-06 14:56 | 23.25342 | 119.04975 | 33995 ft | 449 kts | 240° |
| 2026-05-06 14:57 | 23.21989 | 118.99246 | 33995 ft | 449 kts | 240° |
| 2026-05-06 14:57 | 23.18656 | 118.93557 | 33994 ft | 449 kts | 240° |
| 2026-05-06 14:58 | 23.15302 | 118.87839 | 33996 ft | 449 kts | 240° |
| 2026-05-06 14:58 | 23.11944 | 118.82121 | 33992 ft | 448 kts | 240° |
| 2026-05-06 14:59 | 23.08594 | 118.76421 | 33988 ft | 448 kts | 240° |
| 2026-05-06 14:59 | 23.05263 | 118.70760 | 33994 ft | 448 kts | 240° |
| 2026-05-06 15:00 | 23.01910 | 118.65068 | 33995 ft | 447 kts | 240° |
| 2026-05-06 15:00 | 22.98555 | 118.59378 | 33997 ft | 447 kts | 240° |
| 2026-05-06 15:01 | 22.95199 | 118.53694 | 34001 ft | 448 kts | 239° |
| 2026-05-06 15:01 | 22.91851 | 118.48055 | 33997 ft | 448 kts | 239° |
| 2026-05-06 15:02 | 22.88471 | 118.42378 | 33991 ft | 448 kts | 239° |
| 2026-05-06 15:02 | 22.85089 | 118.36698 | 33999 ft | 448 kts | 239° |
| 2026-05-06 15:03 | 22.81703 | 118.31017 | 34001 ft | 449 kts | 239° |
| 2026-05-06 15:03 | 22.78333 | 118.25367 | 34000 ft | 450 kts | 239° |
| 2026-05-06 15:04 | 22.74930 | 118.19668 | 34001 ft | 451 kts | 239° |
| 2026-05-06 15:04 | 22.71519 | 118.13962 | 34001 ft | 451 kts | 239° |
| 2026-05-06 15:05 | 22.68103 | 118.08254 | 34000 ft | 452 kts | 239° |
| 2026-05-06 15:05 | 22.64685 | 118.02548 | 34001 ft | 452 kts | 239° |
| 2026-05-06 15:06 | 22.61284 | 117.96876 | 34001 ft | 452 kts | 239° |
| 2026-05-06 15:06 | 22.57872 | 117.91169 | 33999 ft | 452 kts | 239° |
| 2026-05-06 15:07 | 22.54474 | 117.85455 | 33997 ft | 451 kts | 239° |
| 2026-05-06 15:07 | 22.51080 | 117.79751 | 33998 ft | 451 kts | 239° |
| 2026-05-06 15:08 | 22.47706 | 117.74093 | 34001 ft | 450 kts | 239° |
| 2026-05-06 15:08 | 22.44310 | 117.68404 | 33980 ft | 450 kts | 239° |
| 2026-05-06 15:09 | 22.40914 | 117.62722 | 33995 ft | 450 kts | 239° |
| 2026-05-06 15:09 | 22.37516 | 117.57040 | 34000 ft | 450 kts | 239° |
| 2026-05-06 15:10 | 22.34612 | 117.51159 | 33990 ft | 445 kts | 258° |
| 2026-05-06 15:10 | 22.34136 | 117.47882 | 34002 ft | 442 kts | 269° |
| 2026-05-06 15:10 | 22.34318 | 117.44582 | 33997 ft | 440 kts | 282° |
| 2026-05-06 15:11 | 22.35704 | 117.38143 | 33994 ft | 440 kts | 284° |
| 2026-05-06 15:11 | 22.37153 | 117.31710 | 33997 ft | 441 kts | 283° |
| 2026-05-06 15:12 | 22.38553 | 117.25257 | 33999 ft | 441 kts | 283° |
| 2026-05-06 15:12 | 22.39915 | 117.18837 | 33999 ft | 441 kts | 283° |
| 2026-05-06 15:13 | 22.41277 | 117.12369 | 33997 ft | 441 kts | 283° |
| 2026-05-06 15:13 | 22.42636 | 117.05905 | 33997 ft | 441 kts | 283° |
| 2026-05-06 15:14 | 22.43991 | 116.99450 | 34000 ft | 440 kts | 283° |
| 2026-05-06 15:14 | 22.45335 | 116.93036 | 33996 ft | 440 kts | 283° |
| 2026-05-06 15:15 | 22.46684 | 116.86587 | 33994 ft | 440 kts | 283° |
| 2026-05-06 15:15 | 22.48028 | 116.80146 | 33998 ft | 439 kts | 283° |
| 2026-05-06 15:16 | 22.49369 | 116.73708 | 33996 ft | 438 kts | 283° |
| 2026-05-06 15:16 | 22.50545 | 116.67249 | 33991 ft | 439 kts | 276° |
| 2026-05-06 15:17 | 22.50426 | 116.60698 | 34004 ft | 439 kts | 268° |
| 2026-05-06 15:17 | 22.50010 | 116.54108 | 33991 ft | 439 kts | 268° |
| 2026-05-06 15:18 | 22.49619 | 116.47515 | 33997 ft | 439 kts | 268° |
| 2026-05-06 15:18 | 22.49248 | 116.40918 | 33994 ft | 439 kts | 268° |
| 2026-05-06 15:19 | 22.48883 | 116.34368 | 33992 ft | 440 kts | 268° |
| 2026-05-06 15:19 | 22.48513 | 116.27763 | 33992 ft | 440 kts | 268° |
| 2026-05-06 15:20 | 22.48139 | 116.21159 | 33987 ft | 440 kts | 268° |
| 2026-05-06 15:20 | 22.47761 | 116.14547 | 33990 ft | 441 kts | 268° |
| 2026-05-06 15:21 | 22.47383 | 116.07975 | 33987 ft | 441 kts | 268° |
| 2026-05-06 15:21 | 22.47000 | 116.01348 | 33990 ft | 442 kts | 268° |
| 2026-05-06 15:22 | 22.46613 | 115.94714 | 33983 ft | 442 kts | 268° |
| 2026-05-06 15:22 | 22.46216 | 115.88079 | 33990 ft | 443 kts | 268° |
| 2026-05-06 15:23 | 22.45815 | 115.81438 | 33985 ft | 443 kts | 268° |
| 2026-05-06 15:23 | 22.45415 | 115.74833 | 33991 ft | 443 kts | 268° |
| 2026-05-06 15:24 | 22.45010 | 115.68188 | 33990 ft | 443 kts | 268° |
| 2026-05-06 15:24 | 22.44601 | 115.61534 | 33985 ft | 443 kts | 267° |
| 2026-05-06 15:25 | 22.44191 | 115.54889 | 33987 ft | 443 kts | 267° |
| 2026-05-06 15:25 | 22.43781 | 115.48294 | 33990 ft | 442 kts | 267° |
| 2026-05-06 15:26 | 22.43366 | 115.41664 | 33983 ft | 442 kts | 267° |
| 2026-05-06 15:26 | 22.42949 | 115.35045 | 33987 ft | 441 kts | 267° |
| 2026-05-06 15:27 | 22.42529 | 115.28436 | 33987 ft | 440 kts | 267° |
| 2026-05-06 15:27 | 22.42111 | 115.21883 | 33980 ft | 440 kts | 267° |
| 2026-05-06 15:28 | 22.41688 | 115.15295 | 33984 ft | 439 kts | 267° |
| 2026-05-06 15:28 | 22.41263 | 115.08723 | 33985 ft | 438 kts | 267° |
| 2026-05-06 15:29 | 22.40836 | 115.02158 | 33984 ft | 438 kts | 267° |
| 2026-05-06 15:29 | 22.40407 | 114.95596 | 33983 ft | 437 kts | 267° |
| 2026-05-06 15:30 | 22.39974 | 114.89026 | 33594 ft | 435 kts | 267° |
| 2026-05-06 15:30 | 22.39762 | 114.85827 | 32976 ft | 432 kts | 267° |
| 2026-05-06 15:30 | 22.39546 | 114.82575 | 32133 ft | 436 kts | 267° |
| 2026-05-06 15:30 | 22.39328 | 114.79276 | 31185 ft | 443 kts | 267° |
| 2026-05-06 15:31 | 22.39105 | 114.75930 | 30239 ft | 450 kts | 267° |
| 2026-05-06 15:31 | 22.38878 | 114.72535 | 29179 ft | 455 kts | 267° |
| 2026-05-06 15:31 | 22.38648 | 114.69112 | 28161 ft | 458 kts | 267° |
| 2026-05-06 15:32 | 22.38186 | 114.62266 | 26213 ft | 462 kts | 266° |
| 2026-05-06 15:32 | 22.37952 | 114.58802 | 25289 ft | 462 kts | 266° |
| 2026-05-06 15:32 | 22.37718 | 114.55357 | 24623 ft | 457 kts | 265° |
| 2026-05-06 15:32 | 22.37488 | 114.51977 | 24364 ft | 442 kts | 265° |
| 2026-05-06 15:33 | 22.37268 | 114.48737 | 24275 ft | 424 kts | 265° |
| 2026-05-06 15:33 | 22.37054 | 114.45613 | 24055 ft | 411 kts | 265° |
| 2026-05-06 15:33 | 22.36847 | 114.42552 | 23569 ft | 407 kts | 265° |
| 2026-05-06 15:33 | 22.36642 | 114.39506 | 22853 ft | 406 kts | 265° |
| 2026-05-06 15:34 | 22.36437 | 114.36469 | 22210 ft | 405 kts | 265° |
| 2026-05-06 15:34 | 22.36235 | 114.33485 | 21639 ft | 402 kts | 265° |
| 2026-05-06 15:34 | 22.36032 | 114.30495 | 21092 ft | 398 kts | 265° |
| 2026-05-06 15:34 | 22.35829 | 114.27526 | 20541 ft | 395 kts | 265° |
| 2026-05-06 15:35 | 22.35627 | 114.24575 | 19975 ft | 393 kts | 265° |
| 2026-05-06 15:35 | 22.35426 | 114.21643 | 19425 ft | 390 kts | 265° |
| 2026-05-06 15:35 | 22.35225 | 114.18729 | 18905 ft | 388 kts | 265° |
| 2026-05-06 15:35 | 22.35026 | 114.15835 | 18382 ft | 385 kts | 265° |
| 2026-05-06 15:36 | 22.34827 | 114.12954 | 17813 ft | 383 kts | 265° |
| 2026-05-06 15:36 | 22.34631 | 114.10134 | 17278 ft | 380 kts | 265° |
| 2026-05-06 15:36 | 22.34435 | 114.07305 | 16773 ft | 376 kts | 265° |
| 2026-05-06 15:36 | 22.34240 | 114.04500 | 16284 ft | 372 kts | 265° |
| 2026-05-06 15:37 | 22.34047 | 114.01728 | 15796 ft | 369 kts | 265° |
| 2026-05-06 15:37 | 22.33854 | 113.98977 | 15287 ft | 366 kts | 265° |
| 2026-05-06 15:37 | 22.33442 | 113.96278 | 14763 ft | 364 kts | 251° |
| 2026-05-06 15:37 | 22.32137 | 113.93957 | 14239 ft | 364 kts | 228° |
| 2026-05-06 15:38 | 22.30277 | 113.92122 | 13814 ft | 362 kts | 221° |
| 2026-05-06 15:38 | 22.28312 | 113.90432 | 13266 ft | 361 kts | 220° |
| 2026-05-06 15:38 | 22.26360 | 113.88797 | 12759 ft | 358 kts | 219° |
| 2026-05-06 15:38 | 22.24401 | 113.87152 | 12271 ft | 355 kts | 219° |
| 2026-05-06 15:39 | 22.22566 | 113.85600 | 11894 ft | 351 kts | 220° |
| 2026-05-06 15:39 | 22.20669 | 113.83982 | 11659 ft | 343 kts | 220° |
| 2026-05-06 15:39 | 22.18824 | 113.82399 | 11406 ft | 335 kts | 220° |
| 2026-05-06 15:39 | 22.17027 | 113.80851 | 11161 ft | 327 kts | 220° |
| 2026-05-06 15:40 | 22.15278 | 113.79343 | 11014 ft | 316 kts | 220° |
| 2026-05-06 15:40 | 22.13592 | 113.77889 | 10968 ft | 303 kts | 220° |
| 2026-05-06 15:40 | 22.12005 | 113.76520 | 10953 ft | 290 kts | 220° |
| 2026-05-06 15:40 | 22.10463 | 113.75190 | 10950 ft | 278 kts | 220° |
| 2026-05-06 15:41 | 22.08973 | 113.73904 | 10957 ft | 273 kts | 220° |
| 2026-05-06 15:41 | 22.07485 | 113.72620 | 10970 ft | 275 kts | 220° |
| 2026-05-06 15:41 | 22.05990 | 113.71331 | 10978 ft | 276 kts | 220° |
| 2026-05-06 15:41 | 22.04481 | 113.70033 | 10975 ft | 278 kts | 220° |
| 2026-05-06 15:42 | 22.03068 | 113.68621 | 10953 ft | 277 kts | 237° |
| 2026-05-06 15:42 | 22.02308 | 113.66773 | 10913 ft | 273 kts | 257° |
| 2026-05-06 15:42 | 22.02089 | 113.65206 | 10764 ft | 269 kts | 264° |
| 2026-05-06 15:42 | 22.02155 | 113.63197 | 10314 ft | 272 kts | 285° |
| 2026-05-06 15:43 | 22.03035 | 113.61388 | 9891 ft | 276 kts | 306° |
| 2026-05-06 15:43 | 22.04425 | 113.59956 | 9459 ft | 278 kts | 320° |
| 2026-05-06 15:43 | 22.06021 | 113.58779 | 9032 ft | 277 kts | 324° |
| 2026-05-06 15:43 | 22.07635 | 113.57650 | 8566 ft | 276 kts | 324° |
| 2026-05-06 15:44 | 22.09240 | 113.56507 | 8092 ft | 278 kts | 324° |
| 2026-05-06 15:44 | 22.10851 | 113.55341 | 7788 ft | 278 kts | 323° |
| 2026-05-06 15:44 | 22.12412 | 113.54184 | 7554 ft | 275 kts | 322° |
| 2026-05-06 15:44 | 22.13961 | 113.52995 | 7314 ft | 272 kts | 322° |
| 2026-05-06 15:45 | 22.15497 | 113.51809 | 7079 ft | 270 kts | 322° |
| 2026-05-06 15:45 | 22.17019 | 113.50634 | 6840 ft | 268 kts | 322° |
| 2026-05-06 15:45 | 22.18533 | 113.49468 | 6611 ft | 266 kts | 322° |
| 2026-05-06 15:45 | 22.20036 | 113.48311 | 6378 ft | 265 kts | 323° |
| 2026-05-06 15:46 | 22.21703 | 113.47487 | 6099 ft | 267 kts | 351° |
| 2026-05-06 15:46 | 22.23524 | 113.47673 | 5861 ft | 265 kts | 20° |
| 2026-05-06 15:46 | 22.25124 | 113.48572 | 5647 ft | 261 kts | 32° |
| 2026-05-06 15:46 | 22.26650 | 113.49624 | 5398 ft | 260 kts | 33° |
| 2026-05-06 15:47 | 22.28155 | 113.50672 | 5146 ft | 255 kts | 33° |
| 2026-05-06 15:47 | 22.29630 | 113.51688 | 4908 ft | 247 kts | 33° |
| 2026-05-06 15:47 | 22.31046 | 113.52653 | 4705 ft | 235 kts | 33° |
| 2026-05-06 15:47 | 22.32396 | 113.53569 | 4478 ft | 225 kts | 33° |
| 2026-05-06 15:48 | 22.33700 | 113.54451 | 4270 ft | 217 kts | 33° |
| 2026-05-06 15:48 | 22.34963 | 113.55305 | 4061 ft | 212 kts | 33° |
| 2026-05-06 15:48 | 22.36056 | 113.56331 | 3822 ft | 207 kts | 63° |
| 2026-05-06 15:48 | 22.36377 | 113.57793 | 3670 ft | 198 kts | 90° |
| 2026-05-06 15:49 | 22.36400 | 113.59270 | 3488 ft | 201 kts | 92° |
| 2026-05-06 15:49 | 22.36246 | 113.60767 | 3286 ft | 200 kts | 115° |
| 2026-05-06 15:49 | 22.35365 | 113.61846 | 3082 ft | 192 kts | 152° |
| 2026-05-06 15:49 | 22.34126 | 113.62337 | 2909 ft | 190 kts | 164° |
| 2026-05-06 15:50 | 22.32854 | 113.62740 | 2716 ft | 190 kts | 163° |
| 2026-05-06 15:50 | 22.31607 | 113.63136 | 2578 ft | 182 kts | 163° |
| 2026-05-06 15:50 | 22.30435 | 113.63507 | 2501 ft | 171 kts | 163° |
| 2026-05-06 15:50 | 22.29293 | 113.63869 | 2504 ft | 171 kts | 164° |
| 2026-05-06 15:51 | 22.28141 | 113.63851 | 2487 ft | 172 kts | 204° |
| 2026-05-06 15:51 | 22.27130 | 113.63140 | 2508 ft | 176 kts | 210° |
| 2026-05-06 15:51 | 22.26112 | 113.62415 | 2384 ft | 176 kts | 211° |
| 2026-05-06 15:51 | 22.25314 | 113.61825 | 2180 ft | 170 kts | 211° |
| 2026-05-06 15:52 | 22.24384 | 113.61123 | 1975 ft | 158 kts | 210° |
| 2026-05-06 15:52 | 22.23480 | 113.60439 | 1735 ft | 160 kts | 210° |
| 2026-05-06 15:52 | 22.22574 | 113.59749 | 1485 ft | 157 kts | 210° |
| 2026-05-06 15:52 | 22.21693 | 113.59077 | 1283 ft | 153 kts | 211° |
| 2026-05-06 15:53 | 22.20829 | 113.58425 | 1092 ft | 154 kts | 210° |
| 2026-05-06 15:53 | 22.19909 | 113.57844 | 898 ft | 152 kts | 195° |
| 2026-05-06 15:53 | 22.18878 | 113.57663 | 676 ft | 152 kts | 171° |
| 2026-05-06 15:53 | 22.17872 | 113.58002 | 438 ft | 153 kts | 153° |
| 2026-05-06 15:54 | 22.16886 | 113.58421 | 235 ft | 153 kts | 158° |
| 2026-05-06 15:54 | 22.15896 | 113.58792 | 44 ft | 150 kts | 159° |
| 2026-05-06 15:54 | 22.14999 | 113.59123 | 27 ft | 110 kts | 161° |
| 2026-05-06 15:54 | 22.14481 | 113.59312 | 28 ft | 47 kts | 161° |
| 2026-05-06 15:55 | 22.14283 | 113.59384 | 27 ft | 18 kts | 162° |
| 2026-05-06 15:55 | 22.14202 | 113.59411 | 27 ft | 9 kts | 175° |
| 2026-05-06 15:55 | 22.14157 | 113.59373 | 28 ft | 9 kts | 250° |
| 2026-05-06 15:55 | 22.14138 | 113.59312 | 28 ft | 9 kts | 251° |
| 2026-05-06 15:56 | 22.14146 | 113.59254 | 27 ft | 8 kts | 320° |
| 2026-05-06 15:56 | 22.14199 | 113.59231 | 27 ft | 8 kts | 341° |
| 2026-05-06 15:56 | 22.14251 | 113.59212 | 27 ft | 8 kts | 341° |
| 2026-05-06 15:56 | 22.14308 | 113.59191 | 27 ft | 11 kts | 341° |
| 2026-05-06 15:57 | 22.14397 | 113.59158 | 27 ft | 16 kts | 341° |
| 2026-05-06 15:57 | 22.14520 | 113.59112 | 27 ft | 20 kts | 341° |
| 2026-05-06 15:57 | 22.14607 | 113.59081 | 27 ft | 20 kts | 341° |
| 2026-05-06 15:57 | 22.14728 | 113.59032 | 27 ft | 9 kts | 325° |
| 2026-05-06 15:58 | 22.14766 | 113.58977 | 27 ft | 10 kts | 302° |
| 2026-05-06 15:58 | 22.14821 | 113.58886 | 27 ft | 19 kts | 304° |
| 2026-05-06 15:58 | 22.14907 | 113.58748 | 27 ft | 23 kts | 303° |
| 2026-05-06 15:58 | 22.14994 | 113.58607 | 27 ft | 22 kts | 303° |
| 2026-05-06 15:59 | 22.15079 | 113.58469 | 27 ft | 22 kts | 303° |
| 2026-05-06 15:59 | 22.15134 | 113.58380 | 27 ft | 21 kts | 303° |
| 2026-05-06 15:59 | 22.15214 | 113.58249 | 27 ft | 21 kts | 303° |
| 2026-05-06 15:59 | 22.15319 | 113.58080 | 27 ft | 20 kts | 303° |
| 2026-05-06 16:00 | 22.15393 | 113.57959 | 27 ft | 19 kts | 303° |
| 2026-05-06 16:00 | 22.15466 | 113.57841 | 27 ft | 19 kts | 303° |
| 2026-05-06 16:00 | 22.15536 | 113.57727 | 27 ft | 17 kts | 303° |
| 2026-05-06 16:00 | 22.15573 | 113.57667 | 27 ft | 14 kts | 303° |
| 2026-05-06 16:01 | 22.15643 | 113.57579 | 27 ft | 9 kts | 313° |
| 2026-05-06 16:01 | 22.15671 | 113.57548 | 27 ft | 9 kts | 313° |
| 2026-05-06 16:01 | 22.15687 | 113.57530 | 27 ft | 1 kts | 314° |
| 2026-05-06 16:01 | 22.15691 | 113.57524 | 27 ft | 0 kts | 314° |